sensor_id;sensor_type;location;lat;lon;timestamp;pressure;altitude;pressure_sealevel;temperature;humidity
67377;BME280;54261;46.086;6.588;2023-11-19T00:01:03;93039.63;;;11.46;44.12
67377;BME280;54261;46.086;6.588;2023-11-19T00:06:07;93036.91;;;11.06;44.99
67377;BME280;54261;46.086;6.588;2023-11-19T00:11:11;93036.38;;;11.58;43.69
67377;BME280;54261;46.086;6.588;2023-11-19T00:16:17;93022.91;;;11.49;43.39
67377;BME280;54261;46.086;6.588;2023-11-19T00:21:19;93030.84;;;11.31;43.69
67377;BME280;54261;46.086;6.588;2023-11-19T00:26:20;93027.78;;;11.47;43.37
67377;BME280;54261;46.086;6.588;2023-11-19T00:31:26;93018.56;;;11.39;44.00
67377;BME280;54261;46.086;6.588;2023-11-19T00:36:31;93019.47;;;11.66;43.43
67377;BME280;54261;46.086;6.588;2023-11-19T00:41:33;93030.47;;;11.87;42.95
67377;BME280;54261;46.086;6.588;2023-11-19T00:46:35;93018.78;;;11.92;42.26
67377;BME280;54261;46.086;6.588;2023-11-19T00:51:37;93036.16;;;10.68;44.32
67377;BME280;54261;46.086;6.588;2023-11-19T00:56:40;93036.97;;;11.14;42.65
67377;BME280;54261;46.086;6.588;2023-11-19T01:01:42;93032.59;;;11.27;42.61
67377;BME280;54261;46.086;6.588;2023-11-19T01:06:43;93030.75;;;10.91;43.07
67377;BME280;54261;46.086;6.588;2023-11-19T01:11:48;93025.53;;;11.09;42.79
67377;BME280;54261;46.086;6.588;2023-11-19T01:16:50;93026.19;;;10.92;42.17
67377;BME280;54261;46.086;6.588;2023-11-19T01:21:52;93021.41;;;10.80;42.45
67377;BME280;54261;46.086;6.588;2023-11-19T01:26:54;93015.50;;;10.78;42.62
67377;BME280;54261;46.086;6.588;2023-11-19T01:31:56;93028.63;;;10.79;43.19
67377;BME280;54261;46.086;6.588;2023-11-19T01:36:57;93023.69;;;10.72;43.62
67377;BME280;54261;46.086;6.588;2023-11-19T01:41:59;93003.50;;;10.75;43.43
67377;BME280;54261;46.086;6.588;2023-11-19T01:47:02;93019.81;;;11.01;44.04
67377;BME280;54261;46.086;6.588;2023-11-19T01:52:04;93011.63;;;11.07;43.91
67377;BME280;54261;46.086;6.588;2023-11-19T01:57:06;93008.81;;;11.12;44.08
67377;BME280;54261;46.086;6.588;2023-11-19T02:02:08;93004.75;;;11.23;44.17
67377;BME280;54261;46.086;6.588;2023-11-19T02:07:11;93000.19;;;11.32;44.04
67377;BME280;54261;46.086;6.588;2023-11-19T02:12:13;92994.66;;;11.20;43.89
67377;BME280;54261;46.086;6.588;2023-11-19T02:17:28;92997.69;;;11.04;43.95
67377;BME280;54261;46.086;6.588;2023-11-19T02:22:30;92987.50;;;11.15;44.12
67377;BME280;54261;46.086;6.588;2023-11-19T02:32:42;92989.09;;;11.16;44.56
67377;BME280;54261;46.086;6.588;2023-11-19T02:37:44;93006.91;;;11.44;44.47
67377;BME280;54261;46.086;6.588;2023-11-19T02:42:46;92994.47;;;11.57;44.27
67377;BME280;54261;46.086;6.588;2023-11-19T02:47:48;92999.06;;;11.65;44.11
67377;BME280;54261;46.086;6.588;2023-11-19T02:52:53;92989.38;;;11.46;43.77
67377;BME280;54261;46.086;6.588;2023-11-19T02:57:55;92991.81;;;11.25;44.00
67377;BME280;54261;46.086;6.588;2023-11-19T03:02:58;92991.69;;;11.39;43.84
67377;BME280;54261;46.086;6.588;2023-11-19T03:08:01;92978.78;;;10.87;44.68
67377;BME280;54261;46.086;6.588;2023-11-19T03:13:03;92962.13;;;10.99;44.23
67377;BME280;54261;46.086;6.588;2023-11-19T03:18:05;92966.16;;;11.19;44.39
67377;BME280;54261;46.086;6.588;2023-11-19T03:23:07;92964.88;;;11.08;44.73
67377;BME280;54261;46.086;6.588;2023-11-19T03:28:08;92941.66;;;11.12;44.69
67377;BME280;54261;46.086;6.588;2023-11-19T03:33:10;92979.06;;;11.40;44.55
67377;BME280;54261;46.086;6.588;2023-11-19T03:38:13;92960.94;;;11.54;44.23
67377;BME280;54261;46.086;6.588;2023-11-19T03:43:16;92960.22;;;11.80;44.31
67377;BME280;54261;46.086;6.588;2023-11-19T03:48:18;92968.31;;;11.98;43.93
67377;BME280;54261;46.086;6.588;2023-11-19T03:53:20;92961.69;;;11.95;43.76
67377;BME280;54261;46.086;6.588;2023-11-19T03:58:22;92893.75;;;11.54;43.66
67377;BME280;54261;46.086;6.588;2023-11-19T04:03:24;92957.03;;;11.69;44.13
67377;BME280;54261;46.086;6.588;2023-11-19T04:08:26;92961.28;;;11.62;43.91
67377;BME280;54261;46.086;6.588;2023-11-19T04:13:28;92960.03;;;11.77;43.97
67377;BME280;54261;46.086;6.588;2023-11-19T04:18:30;92937.50;;;11.46;43.91
67377;BME280;54261;46.086;6.588;2023-11-19T04:23:33;92960.22;;;11.80;44.14
67377;BME280;54261;46.086;6.588;2023-11-19T04:28:35;92957.34;;;11.77;44.11
67377;BME280;54261;46.086;6.588;2023-11-19T04:33:37;92972.56;;;11.90;43.92
67377;BME280;54261;46.086;6.588;2023-11-19T04:38:39;92974.94;;;11.92;44.01
67377;BME280;54261;46.086;6.588;2023-11-19T04:43:41;92981.91;;;11.84;44.06
67377;BME280;54261;46.086;6.588;2023-11-19T04:48:43;92966.38;;;11.81;43.91
67377;BME280;54261;46.086;6.588;2023-11-19T04:53:44;92976.31;;;11.71;43.95
67377;BME280;54261;46.086;6.588;2023-11-19T04:58:46;92966.78;;;11.16;44.45
67377;BME280;54261;46.086;6.588;2023-11-19T05:03:48;92948.09;;;11.42;44.34
67377;BME280;54261;46.086;6.588;2023-11-19T05:08:50;92939.56;;;11.40;44.50
67377;BME280;54261;46.086;6.588;2023-11-19T05:13:52;92953.94;;;11.36;45.04
67377;BME280;54261;46.086;6.588;2023-11-19T05:18:54;92927.16;;;10.90;45.22
67377;BME280;54261;46.086;6.588;2023-11-19T05:23:56;92923.75;;;11.39;45.18
67377;BME280;54261;46.086;6.588;2023-11-19T05:28:58;92922.19;;;11.55;44.97
67377;BME280;54261;46.086;6.588;2023-11-19T05:34:00;92905.66;;;11.22;45.22
67377;BME280;54261;46.086;6.588;2023-11-19T05:39:02;92893.69;;;11.28;45.69
67377;BME280;54261;46.086;6.588;2023-11-19T05:44:04;92893.69;;;11.28;45.82
67377;BME280;54261;46.086;6.588;2023-11-19T05:49:06;92900.91;;;11.10;45.07
67377;BME280;54261;46.086;6.588;2023-11-19T05:54:09;92918.91;;;11.18;45.21
67377;BME280;54261;46.086;6.588;2023-11-19T05:59:11;92928.97;;;11.53;45.23
67377;BME280;54261;46.086;6.588;2023-11-19T06:04:17;92937.09;;;11.70;44.70
67377;BME280;54261;46.086;6.588;2023-11-19T06:09:19;92935.84;;;11.85;44.15
67377;BME280;54261;46.086;6.588;2023-11-19T06:14:21;92921.16;;;11.92;44.23
67377;BME280;54261;46.086;6.588;2023-11-19T06:19:23;92938.91;;;12.19;43.75
67377;BME280;54261;46.086;6.588;2023-11-19T06:24:30;92938.59;;;12.47;43.70
67377;BME280;54261;46.086;6.588;2023-11-19T06:29:32;92942.38;;;12.55;43.38
67377;BME280;54261;46.086;6.588;2023-11-19T06:34:34;92932.38;;;12.64;43.16
67377;BME280;54261;46.086;6.588;2023-11-19T06:39:36;92928.44;;;12.70;42.91
67377;BME280;54261;46.086;6.588;2023-11-19T06:44:38;92927.66;;;12.61;42.92
67377;BME280;54261;46.086;6.588;2023-11-19T06:49:43;92896.78;;;12.50;42.94
67377;BME280;54261;46.086;6.588;2023-11-19T06:54:45;92927.03;;;12.55;42.91
67377;BME280;54261;46.086;6.588;2023-11-19T06:59:47;92912.28;;;12.70;42.46
67377;BME280;54261;46.086;6.588;2023-11-19T07:04:49;92894.22;;;12.62;42.16
67377;BME280;54261;46.086;6.588;2023-11-19T07:09:51;92912.97;;;12.14;43.12
67377;BME280;54261;46.086;6.588;2023-11-19T07:14:53;92909.16;;;12.07;43.25
67377;BME280;54261;46.086;6.588;2023-11-19T07:19:56;92927.69;;;12.43;43.29
67377;BME280;54261;46.086;6.588;2023-11-19T07:25:01;92913.41;;;11.90;43.67
67377;BME280;54261;46.086;6.588;2023-11-19T07:30:03;92925.47;;;12.19;43.43
67377;BME280;54261;46.086;6.588;2023-11-19T07:35:05;92920.69;;;12.51;43.39
67377;BME280;54261;46.086;6.588;2023-11-19T07:40:08;92910.22;;;12.58;42.91
67377;BME280;54261;46.086;6.588;2023-11-19T07:45:10;92900.56;;;12.57;42.44
67377;BME280;54261;46.086;6.588;2023-11-19T07:50:11;92919.56;;;12.70;42.30
67377;BME280;54261;46.086;6.588;2023-11-19T07:55:16;92926.34;;;12.94;42.29
67377;BME280;54261;46.086;6.588;2023-11-19T08:00:17;92926.00;;;13.04;42.38
67377;BME280;54261;46.086;6.588;2023-11-19T08:05:21;92916.06;;;12.78;42.87
67377;BME280;54261;46.086;6.588;2023-11-19T08:10:25;92925.41;;;12.81;42.48
67377;BME280;54261;46.086;6.588;2023-11-19T08:15:27;92923.47;;;12.99;42.83
67377;BME280;54261;46.086;6.588;2023-11-19T08:20:31;92932.16;;;13.05;42.05
67377;BME280;54261;46.086;6.588;2023-11-19T08:25:33;92945.78;;;9.67;47.46
67377;BME280;54261;46.086;6.588;2023-11-19T08:30:35;92933.94;;;9.03;49.95
67377;BME280;54261;46.086;6.588;2023-11-19T08:35:37;92973.47;;;11.27;46.33
67377;BME280;54261;46.086;6.588;2023-11-19T08:40:39;92943.91;;;11.77;45.33
67377;BME280;54261;46.086;6.588;2023-11-19T08:45:41;92966.56;;;11.93;44.41
67377;BME280;54261;46.086;6.588;2023-11-19T08:50:43;92963.59;;;12.48;44.32
67377;BME280;54261;46.086;6.588;2023-11-19T08:55:45;92965.38;;;12.43;44.14
67377;BME280;54261;46.086;6.588;2023-11-19T09:00:47;92958.88;;;12.44;43.71
67377;BME280;54261;46.086;6.588;2023-11-19T09:05:49;92960.94;;;12.30;43.90
67377;BME280;54261;46.086;6.588;2023-11-19T09:10:51;92964.88;;;12.59;43.64
67377;BME280;54261;46.086;6.588;2023-11-19T09:15:52;92925.25;;;12.86;43.58
67377;BME280;54261;46.086;6.588;2023-11-19T09:20:54;92932.28;;;13.17;43.29
67377;BME280;54261;46.086;6.588;2023-11-19T09:25:56;92939.09;;;13.23;43.49
67377;BME280;54261;46.086;6.588;2023-11-19T09:30:58;92942.59;;;13.54;43.34
67377;BME280;54261;46.086;6.588;2023-11-19T09:36:00;92937.78;;;13.29;42.96
67377;BME280;54261;46.086;6.588;2023-11-19T09:41:06;92916.56;;;12.71;43.49
67377;BME280;54261;46.086;6.588;2023-11-19T09:46:13;92953.75;;;12.78;43.17
67377;BME280;54261;46.086;6.588;2023-11-19T09:51:17;92974.69;;;12.46;43.69
67377;BME280;54261;46.086;6.588;2023-11-19T09:56:19;92953.00;;;11.98;44.62
67377;BME280;54261;46.086;6.588;2023-11-19T10:01:21;92951.72;;;12.13;44.14
67377;BME280;54261;46.086;6.588;2023-11-19T10:06:29;92820.22;;;11.50;44.50
67377;BME280;54261;46.086;6.588;2023-11-19T10:11:31;92944.59;;;12.53;43.65
67377;BME280;54261;46.086;6.588;2023-11-19T10:16:34;92943.81;;;12.61;43.71
67377;BME280;54261;46.086;6.588;2023-11-19T10:21:36;92907.69;;;12.62;43.59
67377;BME280;54261;46.086;6.588;2023-11-19T10:26:38;92886.34;;;12.57;43.28
67377;BME280;54261;46.086;6.588;2023-11-19T10:31:40;92908.94;;;12.82;43.10
67377;BME280;54261;46.086;6.588;2023-11-19T10:36:42;92927.16;;;12.77;43.44
67377;BME280;54261;46.086;6.588;2023-11-19T10:41:44;92933.81;;;12.79;43.55
67377;BME280;54261;46.086;6.588;2023-11-19T10:46:48;92939.66;;;12.72;43.54
67377;BME280;54261;46.086;6.588;2023-11-19T10:51:52;92935.59;;;12.31;44.25
67377;BME280;54261;46.086;6.588;2023-11-19T10:56:58;92958.66;;;12.94;43.82
67377;BME280;54261;46.086;6.588;2023-11-19T11:02:03;92967.53;;;13.03;43.86
67377;BME280;54261;46.086;6.588;2023-11-19T11:07:08;92948.97;;;13.02;43.92
67377;BME280;54261;46.086;6.588;2023-11-19T11:12:12;92967.81;;;13.49;43.77
67377;BME280;54261;46.086;6.588;2023-11-19T11:17:17;92921.66;;;13.51;43.20
67377;BME280;54261;46.086;6.588;2023-11-19T11:22:20;92959.53;;;13.93;43.02
67377;BME280;54261;46.086;6.588;2023-11-19T11:28:05;92966.56;;;11.93;45.87
67377;BME280;54261;46.086;6.588;2023-11-19T11:33:30;92984.06;;;13.32;44.52
67377;BME280;54261;46.086;6.588;2023-11-19T11:38:36;92956.00;;;13.63;43.73
67377;BME280;54261;46.086;6.588;2023-11-19T11:48:48;92967.50;;;14.11;43.96
67377;BME280;54261;46.086;6.588;2023-11-19T11:53:51;92961.94;;;14.16;43.53
67377;BME280;54261;46.086;6.588;2023-11-19T11:58:54;92968.59;;;14.19;43.66
67377;BME280;54261;46.086;6.588;2023-11-19T12:03:56;92954.59;;;13.65;44.55
67377;BME280;54261;46.086;6.588;2023-11-19T12:08:59;92956.13;;;14.05;44.71
67377;BME280;54261;46.086;6.588;2023-11-19T12:14:01;92956.16;;;14.26;44.38
67377;BME280;54261;46.086;6.588;2023-11-19T12:19:04;92951.13;;;13.65;45.70
67377;BME280;54261;46.086;6.588;2023-11-19T12:24:08;92941.53;;;13.76;45.65
67377;BME280;54261;46.086;6.588;2023-11-19T12:29:10;92948.03;;;14.05;45.18
67377;BME280;54261;46.086;6.588;2023-11-19T12:34:12;92943.19;;;14.20;45.08
67377;BME280;54261;46.086;6.588;2023-11-19T12:39:15;92945.34;;;14.05;44.74
67377;BME280;54261;46.086;6.588;2023-11-19T12:44:17;92942.88;;;12.57;47.53
67377;BME280;54261;46.086;6.588;2023-11-19T12:49:18;92948.50;;;11.67;50.49
67377;BME280;54261;46.086;6.588;2023-11-19T12:54:32;92921.13;;;12.97;47.59
67377;BME280;54261;46.086;6.588;2023-11-19T12:59:34;92937.31;;;13.66;46.96
67377;BME280;54261;46.086;6.588;2023-11-19T13:04:36;92931.84;;;13.45;46.51
67377;BME280;54261;46.086;6.588;2023-11-19T13:09:38;92927.22;;;12.06;49.00
67377;BME280;54261;46.086;6.588;2023-11-19T13:14:40;92929.84;;;12.77;48.10
67377;BME280;54261;46.086;6.588;2023-11-19T13:19:47;92919.13;;;13.24;47.44
67377;BME280;54261;46.086;6.588;2023-11-19T13:24:49;92929.56;;;13.56;46.47
67377;BME280;54261;46.086;6.588;2023-11-19T13:29:50;92916.81;;;13.74;46.32
67377;BME280;54261;46.086;6.588;2023-11-19T13:34:52;92911.50;;;13.87;45.51
67377;BME280;54261;46.086;6.588;2023-11-19T13:39:54;92919.34;;;14.22;45.42
67377;BME280;54261;46.086;6.588;2023-11-19T13:44:56;92913.09;;;13.19;47.44
67377;BME280;54261;46.086;6.588;2023-11-19T13:49:58;92904.06;;;13.53;46.41
67377;BME280;54261;46.086;6.588;2023-11-19T13:55:00;92903.09;;;13.58;46.23
67377;BME280;54261;46.086;6.588;2023-11-19T14:00:03;92886.97;;;13.79;45.53
67377;BME280;54261;46.086;6.588;2023-11-19T14:05:13;92895.38;;;13.48;45.69
67377;BME280;54261;46.086;6.588;2023-11-19T14:10:15;92886.84;;;13.37;45.92
67377;BME280;54261;46.086;6.588;2023-11-19T14:15:17;92891.88;;;12.43;46.55
67377;BME280;54261;46.086;6.588;2023-11-19T14:20:19;92904.19;;;12.70;46.77
67377;BME280;54261;46.086;6.588;2023-11-19T14:25:22;92911.44;;;12.88;46.61
67377;BME280;54261;46.086;6.588;2023-11-19T14:30:25;92906.84;;;12.97;46.33
67377;BME280;54261;46.086;6.588;2023-11-19T14:35:27;92906.84;;;12.97;46.25
67377;BME280;54261;46.086;6.588;2023-11-19T14:40:28;92902.88;;;13.03;45.79
67377;BME280;54261;46.086;6.588;2023-11-19T14:45:33;92896.53;;;12.99;46.48
67377;BME280;54261;46.086;6.588;2023-11-19T14:50:45;92896.69;;;13.03;46.38
67377;BME280;54261;46.086;6.588;2023-11-19T14:55:47;92885.41;;;13.09;46.45
67377;BME280;54261;46.086;6.588;2023-11-19T15:00:49;92896.06;;;12.97;45.96
67377;BME280;54261;46.086;6.588;2023-11-19T15:05:51;92888.91;;;12.27;47.83
67377;BME280;54261;46.086;6.588;2023-11-19T15:10:53;92889.97;;;12.52;47.74
67377;BME280;54261;46.086;6.588;2023-11-19T15:15:55;92896.28;;;12.83;47.15
67377;BME280;54261;46.086;6.588;2023-11-19T15:20:57;92896.22;;;13.00;46.50
67377;BME280;54261;46.086;6.588;2023-11-19T15:25:59;92868.47;;;13.00;46.50
67377;BME280;54261;46.086;6.588;2023-11-19T15:31:01;92898.94;;;13.31;46.07
67377;BME280;54261;46.086;6.588;2023-11-19T15:36:05;92896.28;;;13.22;46.25
67377;BME280;54261;46.086;6.588;2023-11-19T15:41:09;92883.75;;;12.87;46.18
67377;BME280;54261;46.086;6.588;2023-11-19T15:46:14;92898.72;;;12.23;47.60
67377;BME280;54261;46.086;6.588;2023-11-19T15:51:18;92906.16;;;12.26;47.76
67377;BME280;54261;46.086;6.588;2023-11-19T15:56:20;92892.00;;;12.64;47.34
67377;BME280;54261;46.086;6.588;2023-11-19T16:01:21;92904.38;;;12.83;46.89
67377;BME280;54261;46.086;6.588;2023-11-19T16:06:23;92898.78;;;12.88;46.93
67377;BME280;54261;46.086;6.588;2023-11-19T16:11:25;92881.81;;;12.96;46.38
67377;BME280;54261;46.086;6.588;2023-11-19T16:16:27;92930.25;;;13.14;46.14
67377;BME280;54261;46.086;6.588;2023-11-19T16:21:30;92941.44;;;13.25;45.87
67377;BME280;54261;46.086;6.588;2023-11-19T16:26:32;92942.34;;;13.38;45.73
67377;BME280;54261;46.086;6.588;2023-11-19T16:31:34;92939.75;;;13.50;45.77
67377;BME280;54261;46.086;6.588;2023-11-19T16:36:37;92939.88;;;13.54;44.89
67377;BME280;54261;46.086;6.588;2023-11-19T16:41:38;92920.78;;;13.38;44.74
67377;BME280;54261;46.086;6.588;2023-11-19T16:46:44;92937.34;;;13.19;44.72
67377;BME280;54261;46.086;6.588;2023-11-19T16:51:46;92932.50;;;13.03;45.43
67377;BME280;54261;46.086;6.588;2023-11-19T16:56:48;92943.25;;;13.12;45.55
67377;BME280;54261;46.086;6.588;2023-11-19T17:01:50;92950.00;;;13.27;45.36
67377;BME280;54261;46.086;6.588;2023-11-19T17:06:52;92957.25;;;13.35;44.96
67377;BME280;54261;46.086;6.588;2023-11-19T17:11:54;92962.41;;;13.49;44.74
67377;BME280;54261;46.086;6.588;2023-11-19T17:16:57;92968.63;;;13.50;44.59
67377;BME280;54261;46.086;6.588;2023-11-19T17:21:59;92963.41;;;13.45;45.04
67377;BME280;54261;46.086;6.588;2023-11-19T17:27:01;92971.50;;;13.45;44.91
67377;BME280;54261;46.086;6.588;2023-11-19T17:32:03;92961.34;;;13.41;44.79
67377;BME280;54261;46.086;6.588;2023-11-19T17:37:05;92962.59;;;13.05;44.65
67377;BME280;54261;46.086;6.588;2023-11-19T17:42:07;92986.22;;;12.99;45.74
67377;BME280;54261;46.086;6.588;2023-11-19T17:47:09;92952.19;;;12.86;45.47
67377;BME280;54261;46.086;6.588;2023-11-19T17:52:11;92987.72;;;13.27;45.39
67377;BME280;54261;46.086;6.588;2023-11-19T17:57:14;92976.44;;;13.34;45.39
67377;BME280;54261;46.086;6.588;2023-11-19T18:02:16;92972.69;;;13.17;45.57
67377;BME280;54261;46.086;6.588;2023-11-19T18:07:20;92886.13;;;12.71;45.67
67377;BME280;54261;46.086;6.588;2023-11-19T18:12:22;92977.75;;;13.27;45.62
67377;BME280;54261;46.086;6.588;2023-11-19T18:17:24;92975.38;;;13.26;45.20
67377;BME280;54261;46.086;6.588;2023-11-19T18:22:25;92944.78;;;13.22;45.55
67377;BME280;54261;46.086;6.588;2023-11-19T18:27:27;92984.69;;;13.37;45.32
67377;BME280;54261;46.086;6.588;2023-11-19T18:32:29;92994.31;;;12.99;44.80
67377;BME280;54261;46.086;6.588;2023-11-19T18:37:32;92996.34;;;13.03;45.34
67377;BME280;54261;46.086;6.588;2023-11-19T18:42:35;92998.41;;;13.06;45.39
67377;BME280;54261;46.086;6.588;2023-11-19T18:47:37;93003.91;;;13.18;45.29
67377;BME280;54261;46.086;6.588;2023-11-19T18:52:40;92982.81;;;13.20;44.97
67377;BME280;54261;46.086;6.588;2023-11-19T18:57:42;92975.84;;;13.19;45.01
67377;BME280;54261;46.086;6.588;2023-11-19T19:02:44;92984.16;;;12.79;44.99
67377;BME280;54261;46.086;6.588;2023-11-19T19:07:53;92952.16;;;12.68;45.45
67377;BME280;54261;46.086;6.588;2023-11-19T19:12:58;92975.63;;;12.77;45.19
67377;BME280;54261;46.086;6.588;2023-11-19T19:18:00;92974.84;;;12.76;45.17
67377;BME280;54261;46.086;6.588;2023-11-19T19:23:02;92961.38;;;12.76;44.64
67377;BME280;54261;46.086;6.588;2023-11-19T19:28:04;92966.88;;;12.80;44.42
67377;BME280;54261;46.086;6.588;2023-11-19T19:33:13;92969.28;;;12.72;44.33
67377;BME280;54261;46.086;6.588;2023-11-19T19:38:16;92959.97;;;12.61;43.80
67377;BME280;54261;46.086;6.588;2023-11-19T19:43:18;92962.97;;;12.59;44.32
67377;BME280;54261;46.086;6.588;2023-11-19T19:48:19;92959.50;;;12.50;44.29
67377;BME280;54261;46.086;6.588;2023-11-19T19:53:21;92965.00;;;12.54;44.23
67377;BME280;54261;46.086;6.588;2023-11-19T19:58:23;92963.78;;;12.51;44.15
67377;BME280;54261;46.086;6.588;2023-11-19T20:03:25;92854.72;;;11.74;44.03
67377;BME280;54261;46.086;6.588;2023-11-19T20:08:27;92969.13;;;12.34;43.71
67377;BME280;54261;46.086;6.588;2023-11-19T20:13:29;92962.66;;;12.26;44.13
67377;BME280;54261;46.086;6.588;2023-11-19T20:18:34;92959.31;;;12.20;44.26
67377;BME280;54261;46.086;6.588;2023-11-19T20:23:37;92956.16;;;12.09;43.97
67377;BME280;54261;46.086;6.588;2023-11-19T20:28:39;92950.72;;;11.83;43.94
67377;BME280;54261;46.086;6.588;2023-11-19T20:33:40;92840.84;;;11.06;44.42
67377;BME280;54261;46.086;6.588;2023-11-19T20:38:42;92949.94;;;11.82;44.83
67377;BME280;54261;46.086;6.588;2023-11-19T20:43:44;92949.44;;;11.80;44.65
67377;BME280;54261;46.086;6.588;2023-11-19T20:48:46;92955.63;;;11.81;44.66
67377;BME280;54261;46.086;6.588;2023-11-19T20:53:48;92953.06;;;11.76;44.02
67377;BME280;54261;46.086;6.588;2023-11-19T20:58:50;92955.41;;;11.59;44.05
67377;BME280;54261;46.086;6.588;2023-11-19T21:03:52;92948.31;;;11.64;43.95
67377;BME280;54261;46.086;6.588;2023-11-19T21:08:54;92949.72;;;11.52;44.46
67377;BME280;54261;46.086;6.588;2023-11-19T21:13:56;92948.56;;;11.44;44.20
67377;BME280;54261;46.086;6.588;2023-11-19T21:18:57;92946.84;;;11.49;44.19
67377;BME280;54261;46.086;6.588;2023-11-19T21:23:59;92942.94;;;11.55;44.17
67377;BME280;54261;46.086;6.588;2023-11-19T21:29:03;92946.34;;;11.38;44.33
67377;BME280;54261;46.086;6.588;2023-11-19T21:34:05;92950.81;;;11.51;43.77
67377;BME280;54261;46.086;6.588;2023-11-19T21:39:07;92958.25;;;11.54;43.61
67377;BME280;54261;46.086;6.588;2023-11-19T21:44:10;92945.09;;;11.44;43.99
67377;BME280;54261;46.086;6.588;2023-11-19T21:49:12;92952.00;;;11.27;43.78
67377;BME280;54261;46.086;6.588;2023-11-19T21:54:14;92944.84;;;11.23;44.32
67377;BME280;54261;46.086;6.588;2023-11-19T21:59:16;92957.09;;;11.38;44.49
67377;BME280;54261;46.086;6.588;2023-11-19T22:04:18;92952.66;;;11.42;44.40
67377;BME280;54261;46.086;6.588;2023-11-19T22:09:20;92967.00;;;11.28;44.63
67377;BME280;54261;46.086;6.588;2023-11-19T22:14:22;92938.50;;;11.10;44.66
67377;BME280;54261;46.086;6.588;2023-11-19T22:19:24;92957.19;;;11.24;44.80
67377;BME280;54261;46.086;6.588;2023-11-19T22:24:26;92960.47;;;11.12;44.58
67377;BME280;54261;46.086;6.588;2023-11-19T22:29:27;92957.28;;;11.10;44.95
67377;BME280;54261;46.086;6.588;2023-11-19T22:34:29;92954.94;;;10.85;44.53
67377;BME280;54261;46.086;6.588;2023-11-19T22:39:31;92965.72;;;10.94;44.81
67377;BME280;54261;46.086;6.588;2023-11-19T22:44:33;92958.63;;;10.98;45.29
67377;BME280;54261;46.086;6.588;2023-11-19T22:49:35;92960.34;;;10.94;44.88
67377;BME280;54261;46.086;6.588;2023-11-19T22:54:37;92965.63;;;10.99;44.74
67377;BME280;54261;46.086;6.588;2023-11-19T22:59:38;92959.56;;;10.94;44.28
67377;BME280;54261;46.086;6.588;2023-11-19T23:04:40;92929.09;;;10.44;44.94
67377;BME280;54261;46.086;6.588;2023-11-19T23:09:42;92942.81;;;10.65;44.77
67377;BME280;54261;46.086;6.588;2023-11-19T23:14:46;92946.72;;;10.82;44.83
67377;BME280;54261;46.086;6.588;2023-11-19T23:19:48;92948.06;;;10.70;45.18
67377;BME280;54261;46.086;6.588;2023-11-19T23:24:55;92949.81;;;10.75;44.61
67377;BME280;54261;46.086;6.588;2023-11-19T23:29:57;92955.84;;;10.81;44.50
67377;BME280;54261;46.086;6.588;2023-11-19T23:34:59;92953.13;;;10.72;44.40
67377;BME280;54261;46.086;6.588;2023-11-19T23:40:01;92944.94;;;10.54;44.71
67377;BME280;54261;46.086;6.588;2023-11-19T23:45:06;92949.34;;;10.73;44.22
67377;BME280;54261;46.086;6.588;2023-11-19T23:50:08;92951.03;;;10.69;44.03
67377;BME280;54261;46.086;6.588;2023-11-19T23:55:11;92943.25;;;10.58;44.02
